Time;durP1;ratioP1;P1;durP2;ratioP2;P2;SDS_P1;SDS_P2;PMS_P1;PMS_P2;Temp;Humidity;BMP_temperature;BMP_pressure;BME280_temperature;BME280_humidity;BME280_pressure;Samples;Min_cycle;Max_cycle;Signal;HPM_P1;HPM_P2
2023/04/26 00:02:21;;;;;;;14.85;2.60;;;;;;;;;;5008759;28;20041;-72
2023/04/26 00:04:50;;;;;;;16.08;1.98;;;;;;;;;;5007797;28;20877;-73
2023/04/26 00:07:15;;;;;;;15.95;2.22;;;;;;;;;;5008678;28;20522;-74
2023/04/26 00:09:41;;;;;;;11.55;1.70;;;;;;;;;;5008715;28;20033;-73
2023/04/26 00:12:06;;;;;;;9.73;1.90;;;;;;;;;;5040719;28;20033;-74
2023/04/26 00:14:32;;;;;;;14.27;1.95;;;;;;;;;;5009508;28;22301;-74
2023/04/26 00:16:58;;;;;;;9.73;2.42;;;;;;;;;;5008034;28;20045;-73
2023/04/26 00:19:26;;;;;;;14.68;2.10;;;;;;;;;;5009642;28;20041;-73
2023/04/26 00:21:53;;;;;;;14.35;1.95;;;;;;;;;;5008843;28;20083;-73
2023/04/26 00:24:19;;;;;;;10.18;1.98;;;;;;;;;;5008553;28;20398;-73
2023/04/26 00:26:46;;;;;;;21.40;2.53;;;;;;;;;;5010284;28;20044;-72
2023/04/26 00:29:14;;;;;;;10.48;1.92;;;;;;;;;;5039787;28;20088;-72
2023/04/26 00:31:39;;;;;;;16.90;2.42;;;;;;;;;;5039761;28;20057;-73
2023/04/26 00:34:05;;;;;;;12.65;2.38;;;;;;;;;;5011173;28;20843;-74
2023/04/26 00:36:31;;;;;;;9.77;2.25;;;;;;;;;;5040521;28;20073;-74
2023/04/26 00:38:56;;;;;;;13.20;2.10;;;;;;;;;;5019604;28;20033;-72
2023/04/26 00:41:23;;;;;;;16.50;1.98;;;;;;;;;;5021855;28;20038;-73
2023/04/26 00:43:50;;;;;;;18.33;1.85;;;;;;;;;;5039701;28;20513;-71
2023/04/26 00:46:15;;;;;;;7.90;1.40;;;;;;;;;;5009026;28;20040;-73
2023/04/26 00:48:41;;;;;;;6.47;1.67;;;;;;;;;;5008649;28;20041;-72
2023/04/26 00:51:06;;;;;;;12.05;2.08;;;;;;;;;;5007731;28;20791;-73
2023/04/26 00:53:34;;;;;;;11.43;1.92;;;;;;;;;;5010543;28;20037;-73
2023/04/26 00:55:59;;;;;;;10.80;2.25;;;;;;;;;;5010860;28;20033;-73
2023/04/26 00:58:28;;;;;;;11.63;1.90;;;;;;;;;;5011496;28;20168;-73
2023/04/26 01:00:53;;;;;;;13.82;1.98;;;;;;;;;;5008937;28;20929;-73
2023/04/26 01:03:21;;;;;;;9.02;1.50;;;;;;;;;;5006715;28;20034;-73
2023/04/26 01:05:46;;;;;;;5.88;1.40;;;;;;;;;;5039979;28;20026;-73
2023/04/26 01:08:16;;;;;;;9.15;1.80;;;;;;;;;;5010868;28;20049;-73
2023/04/26 01:10:41;;;;;;;14.02;2.20;;;;;;;;;;5027269;28;20037;-73
2023/04/26 01:13:07;;;;;;;14.00;1.90;;;;;;;;;;5012602;28;20632;-73
2023/04/26 01:15:37;;;;;;;10.73;2.10;;;;;;;;;;5039434;28;20045;-74
2023/04/26 01:18:03;;;;;;;7.95;1.95;;;;;;;;;;5040651;28;20033;-71
2023/04/26 01:20:29;;;;;;;7.80;1.60;;;;;;;;;;5014448;28;20126;-73
2023/04/26 01:22:54;;;;;;;5.20;1.70;;;;;;;;;;5011394;28;20130;-72
2023/04/26 01:25:22;;;;;;;12.65;2.22;;;;;;;;;;5006167;28;20047;-73
2023/04/26 01:27:47;;;;;;;6.65;1.70;;;;;;;;;;5012190;28;20047;-73
2023/04/26 01:30:13;;;;;;;7.68;1.70;;;;;;;;;;5039054;28;20041;-73
2023/04/26 01:32:38;;;;;;;11.50;1.63;;;;;;;;;;5006734;28;20091;-73
2023/04/26 01:35:06;;;;;;;10.05;1.85;;;;;;;;;;5007697;28;21419;-73
2023/04/26 01:37:34;;;;;;;5.90;1.73;;;;;;;;;;5006892;28;20032;-72
2023/04/26 01:40:01;;;;;;;10.40;2.30;;;;;;;;;;5007137;28;20041;-73
2023/04/26 01:42:27;;;;;;;15.07;1.92;;;;;;;;;;5010950;28;22255;-73
2023/04/26 01:44:52;;;;;;;11.25;1.85;;;;;;;;;;5013073;28;20068;-73
2023/04/26 01:47:17;;;;;;;5.88;1.50;;;;;;;;;;5010622;28;20793;-72
2023/04/26 01:49:43;;;;;;;7.43;1.45;;;;;;;;;;5012447;28;20685;-72
2023/04/26 01:52:08;;;;;;;14.85;2.22;;;;;;;;;;5011896;28;20641;-74
2023/04/26 01:54:33;;;;;;;6.55;1.70;;;;;;;;;;5042579;28;20180;-73
2023/04/26 01:57:01;;;;;;;8.43;2.28;;;;;;;;;;5011053;28;20045;-73
2023/04/26 01:59:26;;;;;;;5.78;1.77;;;;;;;;;;5017035;28;20030;-74
2023/04/26 02:01:52;;;;;;;14.45;2.13;;;;;;;;;;5014600;28;20060;-72
2023/04/26 02:04:19;;;;;;;10.95;1.80;;;;;;;;;;5043321;28;20026;-73
2023/04/26 02:06:44;;;;;;;11.57;2.20;;;;;;;;;;5012457;28;20018;-72
2023/04/26 02:09:12;;;;;;;7.28;1.77;;;;;;;;;;5025920;28;20128;-71
2023/04/26 02:11:39;;;;;;;14.68;2.42;;;;;;;;;;5018939;28;20044;-72
2023/04/26 02:14:05;;;;;;;6.28;1.42;;;;;;;;;;5012300;28;20033;-72
2023/04/26 02:16:32;;;;;;;9.43;1.73;;;;;;;;;;5012762;28;20384;-73
2023/04/26 02:18:58;;;;;;;6.20;1.63;;;;;;;;;;5010382;28;20040;-72
2023/04/26 02:21:24;;;;;;;4.45;1.40;;;;;;;;;;5011535;28;20040;-72
2023/04/26 02:23:49;;;;;;;6.97;1.40;;;;;;;;;;5009551;28;20434;-73
2023/04/26 02:26:14;;;;;;;12.07;1.67;;;;;;;;;;5041736;28;20118;-73
2023/04/26 02:28:40;;;;;;;7.25;1.58;;;;;;;;;;5011480;28;20044;-73
2023/04/26 02:31:06;;;;;;;8.27;1.65;;;;;;;;;;5014199;28;20524;-73
2023/04/26 02:33:31;;;;;;;7.93;1.73;;;;;;;;;;5010882;28;20033;-73
2023/04/26 02:35:57;;;;;;;7.10;1.48;;;;;;;;;;5009703;28;20437;-72
2023/04/26 02:38:22;;;;;;;11.07;1.95;;;;;;;;;;5008405;28;20529;-73
2023/04/26 02:40:48;;;;;;;9.77;1.80;;;;;;;;;;5041695;28;20554;-74
2023/04/26 02:43:13;;;;;;;10.93;2.33;;;;;;;;;;5042245;28;20045;-73
2023/04/26 02:45:42;;;;;;;9.80;1.77;;;;;;;;;;5009307;28;20045;-73
2023/04/26 02:48:09;;;;;;;13.48;1.83;;;;;;;;;;5009604;28;20159;-74
2023/04/26 02:50:35;;;;;;;8.30;1.40;;;;;;;;;;5010549;28;20122;-73
2023/04/26 02:53:00;;;;;;;6.65;1.48;;;;;;;;;;5006786;28;20045;-73
2023/04/26 02:55:25;;;;;;;5.82;1.45;;;;;;;;;;5014005;28;20045;-72
2023/04/26 02:57:53;;;;;;;9.00;1.60;;;;;;;;;;5042943;28;20056;-72
2023/04/26 03:00:19;;;;;;;12.07;1.80;;;;;;;;;;5011483;28;20513;-72
2023/04/26 03:02:44;;;;;;;15.35;1.75;;;;;;;;;;5041790;28;20037;-73
2023/04/26 03:05:12;;;;;;;14.13;2.03;;;;;;;;;;5009372;28;20048;-72
2023/04/26 03:07:37;;;;;;;22.02;2.60;;;;;;;;;;5012345;28;20494;-72
2023/04/26 03:10:04;;;;;;;6.93;1.70;;;;;;;;;;5012153;28;20144;-71
2023/04/26 03:12:29;;;;;;;10.27;1.80;;;;;;;;;;5026453;28;20113;-72
2023/04/26 03:14:55;;;;;;;10.57;1.95;;;;;;;;;;5010803;28;20102;-72
2023/04/26 03:17:20;;;;;;;7.38;1.40;;;;;;;;;;5040975;28;20057;-73
2023/04/26 03:19:45;;;;;;;11.93;1.98;;;;;;;;;;5042137;28;21625;-73
2023/04/26 03:22:14;;;;;;;8.73;1.92;;;;;;;;;;5044229;28;20041;-72
2023/04/26 03:24:40;;;;;;;9.77;1.70;;;;;;;;;;5008463;28;20155;-72
2023/04/26 03:27:05;;;;;;;14.73;1.88;;;;;;;;;;5011527;28;20128;-73
2023/04/26 03:29:33;;;;;;;9.38;1.75;;;;;;;;;;5008714;28;20631;-73
2023/04/26 03:31:58;;;;;;;12.00;2.15;;;;;;;;;;5041400;28;22796;-72
2023/04/26 03:34:24;;;;;;;15.73;2.25;;;;;;;;;;5008741;28;20061;-73
2023/04/26 03:36:49;;;;;;;9.40;1.95;;;;;;;;;;5010270;28;20048;-73
2023/04/26 03:39:14;;;;;;;7.68;2.08;;;;;;;;;;5008351;28;20056;-74
2023/04/26 03:41:40;;;;;;;7.18;1.52;;;;;;;;;;5015383;28;20033;-73
2023/04/26 03:44:05;;;;;;;7.07;1.35;;;;;;;;;;5010521;28;20504;-72
2023/04/26 03:46:30;;;;;;;3.65;1.23;;;;;;;;;;5011477;28;20540;-72
2023/04/26 03:48:58;;;;;;;7.85;1.60;;;;;;;;;;5009863;28;20095;-72
2023/04/26 03:51:23;;;;;;;6.03;1.77;;;;;;;;;;5025082;28;21031;-73
2023/04/26 03:53:49;;;;;;;11.10;1.60;;;;;;;;;;5010886;28;20127;-73
2023/04/26 03:56:17;;;;;;;9.18;2.47;;;;;;;;;;5012720;28;20041;-73
2023/04/26 03:58:42;;;;;;;7.82;1.38;;;;;;;;;;5015271;28;20636;-74
2023/04/26 04:01:08;;;;;;;10.82;1.58;;;;;;;;;;5010174;28;20115;-72
2023/04/26 04:03:33;;;;;;;9.52;1.95;;;;;;;;;;5009432;28;20041;-73
2023/04/26 04:06:01;;;;;;;8.40;1.38;;;;;;;;;;5026242;28;20041;-73
2023/04/26 04:08:26;;;;;;;7.70;1.65;;;;;;;;;;5012055;28;20057;-72
2023/04/26 04:10:52;;;;;;;11.82;2.45;;;;;;;;;;5042659;28;20072;-73
2023/04/26 04:13:17;;;;;;;9.38;1.92;;;;;;;;;;5040901;28;20040;-71
2023/04/26 04:15:42;;;;;;;10.30;2.03;;;;;;;;;;5007282;28;20590;-72
2023/04/26 04:18:07;;;;;;;5.53;1.40;;;;;;;;;;5008915;28;20041;-72
2023/04/26 04:20:33;;;;;;;10.82;2.13;;;;;;;;;;5010167;28;20133;-73
2023/04/26 04:22:58;;;;;;;10.85;2.33;;;;;;;;;;5010277;28;20045;-73
2023/04/26 04:25:24;;;;;;;14.23;2.40;;;;;;;;;;5010117;28;20041;-73
2023/04/26 04:27:52;;;;;;;8.88;1.95;;;;;;;;;;5038602;28;20092;-72
2023/04/26 04:30:17;;;;;;;13.38;2.25;;;;;;;;;;5035807;28;20891;-72
2023/04/26 04:32:45;;;;;;;13.93;2.15;;;;;;;;;;5009777;28;20036;-72
2023/04/26 04:35:13;;;;;;;13.32;2.00;;;;;;;;;;5010206;28;20049;-71
2023/04/26 04:37:39;;;;;;;10.13;1.90;;;;;;;;;;5041012;28;20045;-73
2023/04/26 04:40:04;;;;;;;15.30;2.15;;;;;;;;;;5009454;28;20046;-72
2023/04/26 04:42:29;;;;;;;10.20;2.28;;;;;;;;;;5011737;28;21875;-72
2023/04/26 04:44:58;;;;;;;14.68;1.75;;;;;;;;;;5008458;28;20250;-72
2023/04/26 04:47:26;;;;;;;10.93;1.95;;;;;;;;;;5008898;28;20053;-73
2023/04/26 04:49:52;;;;;;;8.25;1.80;;;;;;;;;;5013069;28;20029;-73
2023/04/26 04:52:20;;;;;;;11.30;2.05;;;;;;;;;;5009701;28;20044;-71
2023/04/26 04:54:45;;;;;;;16.13;2.13;;;;;;;;;;5009634;28;20439;-72
2023/04/26 04:57:11;;;;;;;8.30;1.52;;;;;;;;;;5005648;28;20038;-72
2023/04/26 04:59:36;;;;;;;11.80;2.00;;;;;;;;;;5006750;28;20048;-72
2023/04/26 05:02:04;;;;;;;12.32;2.45;;;;;;;;;;5016662;28;20098;-72
2023/04/26 05:04:32;;;;;;;8.52;1.90;;;;;;;;;;5009166;28;22226;-74
2023/04/26 05:06:58;;;;;;;9.43;2.00;;;;;;;;;;5007316;28;20030;-72
2023/04/26 05:09:23;;;;;;;9.18;1.50;;;;;;;;;;5007370;28;20077;-72
2023/04/26 05:11:48;;;;;;;13.85;2.15;;;;;;;;;;5009763;28;20041;-73
2023/04/26 05:14:16;;;;;;;13.20;2.55;;;;;;;;;;5013912;28;20033;-72
2023/04/26 05:16:41;;;;;;;8.88;1.55;;;;;;;;;;5007726;28;20037;-74
2023/04/26 05:19:07;;;;;;;9.00;2.17;;;;;;;;;;5010772;28;20045;-78
2023/04/26 05:21:32;;;;;;;15.15;2.15;;;;;;;;;;5044316;28;20029;-75
2023/04/26 05:23:57;;;;;;;7.68;1.52;;;;;;;;;;5009911;28;20052;-78
2023/04/26 05:26:23;;;;;;;4.95;1.55;;;;;;;;;;5040313;28;20095;-78
2023/04/26 05:28:48;;;;;;;11.05;2.08;;;;;;;;;;5039518;28;20040;-79
2023/04/26 05:31:15;;;;;;;11.10;2.25;;;;;;;;;;5011934;28;20657;-81
2023/04/26 05:33:41;;;;;;;10.15;2.10;;;;;;;;;;5010742;28;20041;-78
2023/04/26 05:36:08;;;;;;;8.77;1.90;;;;;;;;;;5015346;28;20048;-81
2023/04/26 05:38:38;;;;;;;8.82;1.92;;;;;;;;;;5011677;28;20156;-79
2023/04/26 05:41:04;;;;;;;9.88;1.98;;;;;;;;;;5011998;28;20048;-80
2023/04/26 05:43:29;;;;;;;10.25;1.90;;;;;;;;;;5011697;28;22284;-79
2023/04/26 05:45:55;;;;;;;11.23;2.45;;;;;;;;;;5039453;28;20120;-77
2023/04/26 05:48:21;;;;;;;12.20;2.10;;;;;;;;;;5039842;28;20123;-78
2023/04/26 05:50:47;;;;;;;9.10;1.63;;;;;;;;;;5018131;28;20515;-77
2023/04/26 05:53:12;;;;;;;8.48;2.20;;;;;;;;;;5040903;28;20042;-78
2023/04/26 05:55:40;;;;;;;13.15;2.88;;;;;;;;;;5015257;28;20041;-79
2023/04/26 05:58:06;;;;;;;10.65;2.47;;;;;;;;;;5014370;28;20561;-79
2023/04/26 06:00:32;;;;;;;11.95;2.35;;;;;;;;;;5012988;28;20045;-78
2023/04/26 06:02:57;;;;;;;7.97;1.77;;;;;;;;;;5011991;28;20121;-79
2023/04/26 06:05:24;;;;;;;11.30;1.90;;;;;;;;;;5040367;28;20041;-80
2023/04/26 06:07:50;;;;;;;8.68;1.63;;;;;;;;;;5003700;28;20049;-79
2023/04/26 06:10:16;;;;;;;5.65;1.30;;;;;;;;;;5040714;28;20076;-78
2023/04/26 06:12:41;;;;;;;5.97;1.83;;;;;;;;;;5009291;28;20102;-77
2023/04/26 06:15:09;;;;;;;10.45;1.77;;;;;;;;;;5040710;28;20602;-76
2023/04/26 06:17:34;;;;;;;6.13;1.73;;;;;;;;;;5009012;28;20038;-78
2023/04/26 06:20:00;;;;;;;7.25;1.80;;;;;;;;;;4999732;28;20044;-77
2023/04/26 06:22:25;;;;;;;8.30;1.88;;;;;;;;;;5005845;28;20663;-78
2023/04/26 06:24:53;;;;;;;7.95;1.45;;;;;;;;;;5018506;28;20503;-71
2023/04/26 06:27:20;;;;;;;4.63;1.45;;;;;;;;;;4990205;28;20069;-78
2023/04/26 06:29:46;;;;;;;7.78;1.60;;;;;;;;;;4982023;28;20049;-78
2023/04/26 06:32:11;;;;;;;10.18;2.05;;;;;;;;;;4993304;28;20033;-78
2023/04/26 06:34:37;;;;;;;9.43;2.10;;;;;;;;;;5011087;28;20029;-77
2023/04/26 06:37:03;;;;;;;11.70;2.08;;;;;;;;;;5008443;28;20037;-78
2023/04/26 06:39:28;;;;;;;7.40;1.77;;;;;;;;;;5005091;28;20041;-78
2023/04/26 06:41:56;;;;;;;8.40;1.95;;;;;;;;;;5042713;28;20051;-79
2023/04/26 06:44:22;;;;;;;7.40;1.67;;;;;;;;;;5038323;28;20037;-80
2023/04/26 06:46:48;;;;;;;8.73;2.30;;;;;;;;;;5026296;28;20094;-77
2023/04/26 06:49:16;;;;;;;12.52;2.17;;;;;;;;;;5009046;28;20060;-77
2023/04/26 06:51:43;;;;;;;10.82;2.05;;;;;;;;;;5009600;28;20167;-79
2023/04/26 06:54:11;;;;;;;7.25;1.88;;;;;;;;;;5007265;28;20839;-79
2023/04/26 06:56:36;;;;;;;16.95;2.92;;;;;;;;;;5025800;28;21910;-80
2023/04/26 06:59:03;;;;;;;10.50;2.13;;;;;;;;;;5007617;28;20033;-79
2023/04/26 07:01:32;;;;;;;7.47;2.58;;;;;;;;;;5011626;28;20049;-79
2023/04/26 07:04:02;;;;;;;6.95;2.00;;;;;;;;;;5010602;28;20045;-79
2023/04/26 07:06:27;;;;;;;10.95;1.98;;;;;;;;;;5011254;28;20046;-80
2023/04/26 07:08:55;;;;;;;7.40;1.60;;;;;;;;;;5006412;28;20060;-77
2023/04/26 07:11:21;;;;;;;8.88;1.83;;;;;;;;;;5006028;28;20037;-76
2023/04/26 07:13:46;;;;;;;20.90;2.78;;;;;;;;;;5016821;28;20037;-79
2023/04/26 07:16:14;;;;;;;19.60;2.35;;;;;;;;;;5011602;28;20044;-78
2023/04/26 07:18:40;;;;;;;5.72;1.48;;;;;;;;;;5008598;28;20045;-77
2023/04/26 07:21:05;;;;;;;4.32;1.27;;;;;;;;;;5023305;28;20119;-78
2023/04/26 07:23:31;;;;;;;5.97;1.40;;;;;;;;;;5040036;28;20053;-77
2023/04/26 07:25:56;;;;;;;6.40;1.75;;;;;;;;;;5039649;28;20092;-77
2023/04/26 07:28:21;;;;;;;10.27;2.00;;;;;;;;;;5028262;28;20130;-79
2023/04/26 07:30:49;;;;;;;10.65;1.95;;;;;;;;;;5006884;28;20502;-74
2023/04/26 07:33:17;;;;;;;9.43;2.17;;;;;;;;;;5009236;28;20295;-77
2023/04/26 07:35:42;;;;;;;5.50;1.67;;;;;;;;;;5008093;28;20116;-76
2023/04/26 07:38:08;;;;;;;7.65;1.73;;;;;;;;;;5010247;28;20037;-75
2023/04/26 07:40:34;;;;;;;10.27;2.20;;;;;;;;;;5035405;28;20414;-76
2023/04/26 07:42:59;;;;;;;7.18;1.67;;;;;;;;;;5000543;28;21853;-77
2023/04/26 07:45:24;;;;;;;7.25;1.90;;;;;;;;;;5007057;28;20037;-76
2023/04/26 07:47:50;;;;;;;11.93;1.70;;;;;;;;;;5037814;28;20045;-79
2023/04/26 07:50:15;;;;;;;6.75;2.28;;;;;;;;;;5006896;28;20656;-75
2023/04/26 07:52:42;;;;;;;10.10;1.80;;;;;;;;;;5008137;28;20038;-77
2023/04/26 07:55:07;;;;;;;8.90;1.58;;;;;;;;;;5009115;28;20124;-79
2023/04/26 07:57:33;;;;;;;12.75;2.15;;;;;;;;;;5013244;28;20030;-78
2023/04/26 07:59:58;;;;;;;10.40;1.63;;;;;;;;;;5009552;28;20040;-77
2023/04/26 08:02:25;;;;;;;8.35;1.80;;;;;;;;;;5007318;28;20030;-78
2023/04/26 08:04:51;;;;;;;4.82;1.92;;;;;;;;;;5010157;28;20030;-77
2023/04/26 08:07:17;;;;;;;6.75;1.50;;;;;;;;;;5009329;28;20045;-78
2023/04/26 08:09:43;;;;;;;9.20;1.80;;;;;;;;;;5010011;28;20140;-77
2023/04/26 08:12:11;;;;;;;10.35;1.65;;;;;;;;;;5039591;28;20517;-77
2023/04/26 08:14:37;;;;;;;9.93;1.95;;;;;;;;;;5008118;28;20061;-77
2023/04/26 08:17:05;;;;;;;9.00;1.92;;;;;;;;;;5011955;28;20029;-77
2023/04/26 08:19:36;;;;;;;6.00;1.58;;;;;;;;;;5007883;28;20025;-79
2023/04/26 08:22:01;;;;;;;8.05;2.00;;;;;;;;;;5009236;28;20029;-80
2023/04/26 08:24:28;;;;;;;9.25;1.75;;;;;;;;;;5008932;28;20025;-79
2023/04/26 08:26:57;;;;;;;6.57;1.83;;;;;;;;;;5041488;28;20056;-79
2023/04/26 08:29:23;;;;;;;5.15;1.60;;;;;;;;;;5008882;28;20061;-76
2023/04/26 08:31:48;;;;;;;8.27;1.67;;;;;;;;;;4980845;28;20041;-80
2023/04/26 08:34:13;;;;;;;4.22;1.35;;;;;;;;;;4989482;28;20149;-81
2023/04/26 08:36:40;;;;;;;5.90;1.58;;;;;;;;;;4991695;28;20041;-78
2023/04/26 08:39:06;;;;;;;8.32;1.80;;;;;;;;;;4988626;28;20092;-79
2023/04/26 08:41:35;;;;;;;4.20;1.33;;;;;;;;;;4984999;28;20042;-79
2023/04/26 08:44:04;;;;;;;8.77;1.50;;;;;;;;;;5000895;28;20027;-81
2023/04/26 08:46:32;;;;;;;6.82;1.58;;;;;;;;;;4987029;28;20534;-80
2023/04/26 08:49:04;;;;;;;5.70;1.70;;;;;;;;;;4988345;28;20051;-80
2023/04/26 08:51:32;;;;;;;6.88;1.60;;;;;;;;;;4990227;28;20141;-77
2023/04/26 08:53:58;;;;;;;7.45;1.67;;;;;;;;;;5023759;28;20045;-77
2023/04/26 08:56:27;;;;;;;6.03;1.40;;;;;;;;;;5006144;28;20029;-80
2023/04/26 08:58:53;;;;;;;5.70;1.50;;;;;;;;;;5020324;28;20112;-80
2023/04/26 09:01:18;;;;;;;6.18;1.45;;;;;;;;;;4990528;28;20034;-79
2023/04/26 09:03:46;;;;;;;7.32;1.52;;;;;;;;;;4990265;28;20096;-78
2023/04/26 09:06:12;;;;;;;6.70;1.30;;;;;;;;;;4991816;28;20573;-78
2023/04/26 09:08:39;;;;;;;9.90;1.55;;;;;;;;;;4994766;28;20041;-81
2023/04/26 09:11:04;;;;;;;5.60;1.30;;;;;;;;;;4993329;28;20396;-68
2023/04/26 09:13:30;;;;;;;5.32;1.33;;;;;;;;;;4989345;28;20041;-68
2023/04/26 09:15:57;;;;;;;6.40;1.33;;;;;;;;;;4997446;28;20033;-68
2023/04/26 09:18:23;;;;;;;6.93;1.42;;;;;;;;;;4993425;28;21323;-67
2023/04/26 09:21:07;;;;;;;5.55;1.30;;;;;;;;;;4990411;28;20034;-67
2023/04/26 09:23:32;;;;;;;5.78;1.30;;;;;;;;;;4989819;28;20088;-68
2023/04/26 09:26:16;;;;;;;7.20;1.55;;;;;;;;;;4990145;28;20049;-67
2023/04/26 09:28:42;;;;;;;5.25;1.42;;;;;;;;;;4990326;28;20675;-68
2023/04/26 09:31:07;;;;;;;5.63;1.80;;;;;;;;;;4992622;28;20065;-68
2023/04/26 09:33:32;;;;;;;4.00;1.20;;;;;;;;;;4990847;28;20157;-68
2023/04/26 09:36:10;;;;;;;5.32;1.20;;;;;;;;;;4990963;28;20034;-68
2023/04/26 09:38:40;;;;;;;7.50;1.80;;;;;;;;;;4989117;28;20106;-67
2023/04/26 09:41:06;;;;;;;3.97;1.60;;;;;;;;;;4993455;28;20042;-68
2023/04/26 09:43:35;;;;;;;6.97;1.38;;;;;;;;;;5020851;28;20224;-66
2023/04/26 09:46:03;;;;;;;4.78;1.40;;;;;;;;;;5024050;28;20060;-66
2023/04/26 09:48:30;;;;;;;9.20;1.60;;;;;;;;;;5022075;28;20041;-68
2023/04/26 09:51:01;;;;;;;5.75;1.60;;;;;;;;;;4991899;28;20072;-66
2023/04/26 09:53:28;;;;;;;3.75;1.10;;;;;;;;;;4987008;28;20049;-67
2023/04/26 09:55:54;;;;;;;6.45;1.30;;;;;;;;;;5016037;28;20041;-67
2023/04/26 09:58:19;;;;;;;7.53;1.55;;;;;;;;;;4986413;28;20672;-67
2023/04/26 10:00:46;;;;;;;5.95;1.52;;;;;;;;;;4990563;28;20041;-68
2023/04/26 10:03:12;;;;;;;3.03;1.20;;;;;;;;;;4984490;28;20042;-68
2023/04/26 10:05:37;;;;;;;4.72;1.38;;;;;;;;;;4987347;28;20037;-69
2023/04/26 10:08:04;;;;;;;5.85;1.30;;;;;;;;;;5024506;28;20056;-68
2023/04/26 10:10:30;;;;;;;4.57;1.17;;;;;;;;;;5008513;28;20065;-67
2023/04/26 10:12:56;;;;;;;5.43;1.48;;;;;;;;;;5039608;28;22272;-68
2023/04/26 10:15:21;;;;;;;4.88;1.25;;;;;;;;;;5004997;28;20037;-68
2023/04/26 10:17:46;;;;;;;4.35;1.27;;;;;;;;;;5003670;28;20056;-68
2023/04/26 10:20:12;;;;;;;5.53;1.45;;;;;;;;;;5007841;28;20042;-68
2023/04/26 10:22:45;;;;;;;6.93;1.42;;;;;;;;;;5023544;28;20140;-67
2023/04/26 10:25:13;;;;;;;4.55;1.40;;;;;;;;;;5016639;28;20038;-71
2023/04/26 10:27:43;;;;;;;4.05;1.17;;;;;;;;;;5011483;28;20976;-68
2023/04/26 10:30:09;;;;;;;4.80;1.23;;;;;;;;;;5004990;28;20040;-67
2023/04/26 10:32:53;;;;;;;4.85;1.30;;;;;;;;;;5006820;28;20029;-68
2023/04/26 10:35:18;;;;;;;5.90;1.35;;;;;;;;;;5006234;28;20065;-68
2023/04/26 10:38:07;;;;;;;5.38;1.30;;;;;;;;;;5003060;28;20551;-68
2023/04/26 10:40:39;;;;;;;3.55;1.00;;;;;;;;;;5013595;28;20037;-66
2023/04/26 10:43:07;;;;;;;8.45;1.75;;;;;;;;;;5008800;28;20037;-68
2023/04/26 10:45:33;;;;;;;7.72;1.30;;;;;;;;;;5035506;28;20111;-67
2023/04/26 10:48:17;;;;;;;4.78;1.27;;;;;;;;;;5024922;28;20049;-68
2023/04/26 10:51:00;;;;;;;3.88;0.95;;;;;;;;;;5002956;28;20049;-67
2023/04/26 10:53:51;;;;;;;4.40;1.10;;;;;;;;;;5004620;28;20664;-67
2023/04/26 10:56:23;;;;;;;6.38;1.38;;;;;;;;;;5006640;28;20048;-68
2023/04/26 10:58:48;;;;;;;1.88;1.05;;;;;;;;;;5030466;28;20045;-67
2023/04/26 11:01:15;;;;;;;6.45;1.40;;;;;;;;;;5022265;28;20625;-68
2023/04/26 11:03:41;;;;;;;4.15;1.20;;;;;;;;;;5039857;28;20603;-67
2023/04/26 11:06:08;;;;;;;5.43;1.33;;;;;;;;;;5009917;28;20064;-68
2023/04/26 11:08:35;;;;;;;3.33;1.10;;;;;;;;;;5039253;28;20107;-68
2023/04/26 11:11:00;;;;;;;5.13;1.13;;;;;;;;;;5022334;28;20418;-69
2023/04/26 11:13:26;;;;;;;6.30;1.42;;;;;;;;;;5005072;28;20087;-68
2023/04/26 11:15:58;;;;;;;6.38;1.50;;;;;;;;;;5006098;28;20059;-68
2023/04/26 11:18:24;;;;;;;6.55;1.23;;;;;;;;;;5006932;28;20037;-68
2023/04/26 11:20:49;;;;;;;5.20;1.42;;;;;;;;;;5009962;28;20048;-67
2023/04/26 11:23:19;;;;;;;5.18;1.40;;;;;;;;;;5037204;28;20045;-67
2023/04/26 11:25:44;;;;;;;4.70;1.23;;;;;;;;;;5005937;28;20045;-67
2023/04/26 11:28:10;;;;;;;3.25;1.05;;;;;;;;;;5006219;28;22049;-66
2023/04/26 11:30:35;;;;;;;7.78;1.35;;;;;;;;;;5002014;28;20212;-67
2023/04/26 11:33:03;;;;;;;5.53;1.20;;;;;;;;;;5038297;28;20033;-67
2023/04/26 11:35:29;;;;;;;5.30;1.30;;;;;;;;;;5007344;28;20033;-67
2023/04/26 11:37:57;;;;;;;5.32;1.23;;;;;;;;;;5039236;28;20037;-68
2023/04/26 11:40:24;;;;;;;6.30;1.35;;;;;;;;;;5005376;28;20042;-67
2023/04/26 11:42:50;;;;;;;4.45;1.20;;;;;;;;;;5022264;28;20083;-67
2023/04/26 11:45:15;;;;;;;3.60;1.40;;;;;;;;;;5008342;28;20041;-68
2023/04/26 11:47:40;;;;;;;5.03;1.65;;;;;;;;;;5009508;28;20095;-67
2023/04/26 11:50:07;;;;;;;6.85;1.55;;;;;;;;;;5005749;28;20029;-68
2023/04/26 11:52:33;;;;;;;3.97;1.30;;;;;;;;;;5009549;28;20025;-67
2023/04/26 11:55:03;;;;;;;3.15;1.20;;;;;;;;;;5035881;28;20117;-67
2023/04/26 11:57:30;;;;;;;7.68;1.33;;;;;;;;;;5002309;28;20037;-68
2023/04/26 12:00:13;;;;;;;8.00;1.40;;;;;;;;;;5005324;28;20134;-68
2023/04/26 12:02:42;;;;;;;5.72;1.10;;;;;;;;;;5010759;28;20610;-68
2023/04/26 12:05:08;;;;;;;6.00;1.38;;;;;;;;;;5036186;28;20055;-68
2023/04/26 12:07:39;;;;;;;9.52;1.35;;;;;;;;;;5006106;28;20053;-67
2023/04/26 12:10:14;;;;;;;3.92;1.45;;;;;;;;;;5013533;28;20047;-67
2023/04/26 12:12:42;;;;;;;3.70;1.15;;;;;;;;;;5003363;28;20112;-68
2023/04/26 12:15:09;;;;;;;6.90;1.40;;;;;;;;;;5038023;28;20964;-68
2023/04/26 12:17:35;;;;;;;4.57;1.20;;;;;;;;;;5005700;28;20552;-68
2023/04/26 12:20:07;;;;;;;7.15;1.17;;;;;;;;;;5006945;28;20037;-68
2023/04/26 12:22:32;;;;;;;6.85;1.30;;;;;;;;;;5035789;28;20033;-68
2023/04/26 12:25:07;;;;;;;5.93;1.35;;;;;;;;;;5006100;28;20033;-68
2023/04/26 12:27:32;;;;;;;4.18;1.25;;;;;;;;;;5009589;28;20065;-68
2023/04/26 12:29:58;;;;;;;6.05;1.30;;;;;;;;;;5009840;28;20083;-69
2023/04/26 12:32:23;;;;;;;8.18;1.45;;;;;;;;;;5007889;28;20029;-68
2023/04/26 12:34:48;;;;;;;3.47;1.10;;;;;;;;;;5009516;28;20719;-68
2023/04/26 12:37:14;;;;;;;5.78;1.20;;;;;;;;;;4992190;28;20022;-68
2023/04/26 12:39:39;;;;;;;4.60;1.10;;;;;;;;;;5009039;28;20085;-69
2023/04/26 12:42:05;;;;;;;4.40;1.23;;;;;;;;;;5008510;28;20030;-77
2023/04/26 12:44:30;;;;;;;5.90;1.50;;;;;;;;;;5010657;28;20037;-78
2023/04/26 12:46:56;;;;;;;4.72;1.23;;;;;;;;;;5010972;28;20674;-79
2023/04/26 12:49:21;;;;;;;3.75;1.10;;;;;;;;;;5043766;28;20072;-79
2023/04/26 12:51:46;;;;;;;5.05;1.33;;;;;;;;;;5008787;28;20091;-78
2023/04/26 12:54:12;;;;;;;6.78;1.52;;;;;;;;;;5021109;28;20041;-78
2023/04/26 12:56:42;;;;;;;4.20;1.10;;;;;;;;;;5007728;28;20033;-76
2023/04/26 12:59:08;;;;;;;4.95;1.40;;;;;;;;;;5007348;28;20033;-79
2023/04/26 13:01:33;;;;;;;5.93;1.30;;;;;;;;;;5005068;28;20062;-78
2023/04/26 13:03:59;;;;;;;4.43;1.08;;;;;;;;;;5007487;28;20709;-78
2023/04/26 13:06:26;;;;;;;3.72;1.20;;;;;;;;;;5008520;28;20664;-78
2023/04/26 13:08:51;;;;;;;5.25;1.25;;;;;;;;;;5009667;28;20062;-79
2023/04/26 13:11:17;;;;;;;6.63;1.15;;;;;;;;;;5014594;28;20117;-79
2023/04/26 13:13:42;;;;;;;4.07;1.25;;;;;;;;;;5010070;28;20037;-80
2023/04/26 13:16:07;;;;;;;5.82;1.40;;;;;;;;;;5009206;28;20033;-78
2023/04/26 13:18:35;;;;;;;3.25;1.20;;;;;;;;;;5009637;28;20091;-77
2023/04/26 13:21:00;;;;;;;4.88;1.10;;;;;;;;;;5009608;28;20491;-77
2023/04/26 13:23:25;;;;;;;5.00;1.17;;;;;;;;;;5007397;28;20038;-74
2023/04/26 13:25:51;;;;;;;6.53;1.30;;;;;;;;;;5009409;28;20527;-76
2023/04/26 13:28:16;;;;;;;7.80;1.33;;;;;;;;;;5008462;28;20052;-77
2023/04/26 13:30:41;;;;;;;3.67;1.00;;;;;;;;;;5022666;28;20046;-77
2023/04/26 13:33:07;;;;;;;4.47;1.27;;;;;;;;;;5036755;28;20033;-74
2023/04/26 13:35:32;;;;;;;5.20;1.20;;;;;;;;;;5007819;28;20119;-74
2023/04/26 13:37:57;;;;;;;8.50;1.60;;;;;;;;;;5008718;28;20033;-76
2023/04/26 13:40:22;;;;;;;5.28;1.42;;;;;;;;;;5043675;28;20043;-74
2023/04/26 13:42:48;;;;;;;3.60;1.05;;;;;;;;;;5041544;28;20038;-74
2023/04/26 13:45:13;;;;;;;3.70;1.08;;;;;;;;;;5012401;28;20029;-76
2023/04/26 13:47:38;;;;;;;9.70;1.40;;;;;;;;;;5040566;28;20150;-75
2023/04/26 13:50:04;;;;;;;6.55;1.48;;;;;;;;;;5009465;28;20034;-77
2023/04/26 13:52:29;;;;;;;4.47;1.30;;;;;;;;;;5008790;28;20056;-71
2023/04/26 13:54:57;;;;;;;3.10;1.20;;;;;;;;;;5008988;28;20140;-68
2023/04/26 13:57:22;;;;;;;7.10;1.40;;;;;;;;;;5019943;28;20577;-71
2023/04/26 13:59:47;;;;;;;5.32;1.50;;;;;;;;;;5007248;28;20025;-71
2023/04/26 14:02:13;;;;;;;4.88;1.10;;;;;;;;;;5007257;28;20570;-76
2023/04/26 14:04:39;;;;;;;4.57;1.38;;;;;;;;;;5007107;28;20021;-73
2023/04/26 14:07:07;;;;;;;3.80;1.40;;;;;;;;;;5038122;28;20041;-72
2023/04/26 14:09:35;;;;;;;4.90;1.40;;;;;;;;;;5007413;28;20151;-70
2023/04/26 14:12:00;;;;;;;4.40;1.20;;;;;;;;;;5038071;28;20041;-69
2023/04/26 14:14:26;;;;;;;6.78;1.58;;;;;;;;;;5037672;28;20098;-68
2023/04/26 14:16:51;;;;;;;5.38;1.30;;;;;;;;;;5034814;28;20038;-74
2023/04/26 14:19:16;;;;;;;6.43;1.35;;;;;;;;;;5038637;28;20113;-73
2023/04/26 14:21:42;;;;;;;5.28;1.50;;;;;;;;;;5006948;28;20187;-69
2023/04/26 14:24:07;;;;;;;5.18;1.42;;;;;;;;;;5009069;28;20109;-72
2023/04/26 14:26:33;;;;;;;3.60;1.20;;;;;;;;;;5006109;28;20087;-71
2023/04/26 14:28:58;;;;;;;7.43;1.75;;;;;;;;;;5006790;28;20048;-75
2023/04/26 14:31:25;;;;;;;5.47;1.60;;;;;;;;;;5006343;28;20095;-74
2023/04/26 14:33:50;;;;;;;3.67;1.25;;;;;;;;;;5007656;28;20037;-73
2023/04/26 14:36:15;;;;;;;5.18;1.40;;;;;;;;;;5037322;28;20256;-72